Time;durP1;ratioP1;P1;durP2;ratioP2;P2;SDS_P1;SDS_P2;PMS_P1;PMS_P2;Temp;Humidity;BMP_temperature;BMP_pressure;BME280_temperature;BME280_humidity;BME280_pressure;Samples;Min_cycle;Max_cycle;Signal;HPM_P1;HPM_P2
2021/12/02 00:00:06;;;;;;;5.28;0.80;;;7.00;74.70;;;;;;5011903;28;20038;-70
2021/12/02 00:02:38;;;;;;;4.40;1.10;;;7.00;74.70;;;;;;5015704;28;20104;-70
2021/12/02 00:05:05;;;;;;;2.38;0.38;;;7.10;73.90;;;;;;5011542;28;20116;-70
2021/12/02 00:07:31;;;;;;;2.67;0.30;;;7.20;73.50;;;;;;5013368;28;20040;-70
2021/12/02 00:09:56;;;;;;;2.90;0.50;;;7.20;73.00;;;;;;5014457;28;20021;-69
2021/12/02 00:12:22;;;;;;;2.70;0.50;;;7.20;73.70;;;;;;5012226;28;20225;-69
2021/12/02 00:14:49;;;;;;;4.32;0.82;;;7.20;73.60;;;;;;4994946;28;20026;-70
2021/12/02 00:17:26;;;;;;;3.97;0.68;;;7.20;73.90;;;;;;5015261;28;20524;-70
2021/12/02 00:23:14;;;;;;;3.90;0.50;;;7.30;73.70;;;;;;5010155;28;19920;-70
2021/12/02 00:25:40;;;;;;;0.95;0.40;;;7.20;73.40;;;;;;4994998;28;20819;-69
2021/12/02 00:28:06;;;;;;;0.75;0.30;;;7.10;73.90;;;;;;5013338;28;20176;-69
2021/12/02 00:30:32;;;;;;;1.23;0.40;;;7.20;74.60;;;;;;5016632;28;20847;-69
2021/12/02 00:33:01;;;;;;;3.03;0.47;;;7.10;73.10;;;;;;4996195;28;20037;-70
2021/12/02 00:35:27;;;;;;;2.00;0.70;;;7.00;73.60;;;;;;5013046;28;20039;-69
2021/12/02 00:37:53;;;;;;;4.15;0.55;;;6.90;74.20;;;;;;5013012;28;20030;-68
2021/12/02 00:40:19;;;;;;;5.43;0.60;;;6.90;74.20;;;;;;5013562;28;20494;-69
2021/12/02 00:42:45;;;;;;;2.40;0.45;;;6.80;73.80;;;;;;5006641;28;20032;-69
2021/12/02 00:45:10;;;;;;;2.13;0.70;;;6.70;74.30;;;;;;5012275;28;20038;-69
2021/12/02 00:47:37;;;;;;;1.63;0.45;;;6.70;75.10;;;;;;5012576;28;20044;-69
2021/12/02 00:50:03;;;;;;;5.60;0.30;;;6.60;74.90;;;;;;5002933;28;20033;-69
2021/12/02 00:52:30;;;;;;;3.20;0.52;;;6.60;75.10;;;;;;5001725;28;20037;-69
2021/12/02 00:54:56;;;;;;;3.20;0.60;;;6.50;74.90;;;;;;5008302;28;20146;-69
2021/12/02 00:57:22;;;;;;;0.80;0.63;;;6.50;75.50;;;;;;5017869;28;20073;-69
2021/12/02 00:59:49;;;;;;;4.15;0.65;;;6.60;74.60;;;;;;5016391;28;20040;-69
2021/12/02 01:02:15;;;;;;;6.95;1.25;;;6.70;74.50;;;;;;5015173;28;20029;-70
2021/12/02 01:04:41;;;;;;;2.42;0.60;;;6.90;74.50;;;;;;5010265;28;20034;-69
2021/12/02 01:07:08;;;;;;;6.47;0.60;;;6.90;74.10;;;;;;5009138;28;20556;-69
2021/12/02 01:09:34;;;;;;;1.38;0.30;;;7.00;74.30;;;;;;5013871;28;20034;-69
2021/12/02 01:12:01;;;;;;;2.85;0.30;;;7.10;76.30;;;;;;5015188;28;20470;-69
2021/12/02 01:14:27;;;;;;;0.93;0.30;;;7.00;79.90;;;;;;5017671;28;20032;-69
2021/12/02 01:16:53;;;;;;;0.20;0.20;;;6.80;81.80;;;;;;5009909;28;20029;-70
2021/12/02 01:19:19;;;;;;;3.72;0.30;;;6.70;83.00;;;;;;4995869;28;20141;-70
2021/12/02 01:21:49;;;;;;;0.28;0.28;;;6.50;84.20;;;;;;5011682;28;20033;-70
2021/12/02 01:24:18;;;;;;;1.30;0.35;;;6.40;84.80;;;;;;4988816;28;20073;-69
2021/12/02 01:26:53;;;;;;;0.75;0.20;;;6.30;86.10;;;;;;5016157;28;20045;-69
2021/12/02 01:29:24;;;;;;;1.33;0.40;;;6.10;86.10;;;;;;5015409;28;20037;-69
2021/12/02 01:31:53;;;;;;;0.20;0.20;;;6.00;87.50;;;;;;5016083;28;20041;-69
2021/12/02 01:34:27;;;;;;;0.40;0.20;;;6.00;87.30;;;;;;4995614;28;20085;-70
2021/12/02 01:36:54;;;;;;;1.38;0.28;;;5.90;87.10;;;;;;5011107;28;20500;-69
2021/12/02 01:39:21;;;;;;;3.38;0.40;;;5.90;87.00;;;;;;5016190;28;20042;-69
2021/12/02 01:41:55;;;;;;;1.85;0.17;;;5.90;87.30;;;;;;4999576;28;20032;-70
2021/12/02 01:44:23;;;;;;;0.45;0.20;;;5.90;87.30;;;;;;5015829;28;20046;-69
2021/12/02 01:46:51;;;;;;;1.45;0.22;;;5.90;87.10;;;;;;5007957;28;20587;-69
2021/12/02 01:49:19;;;;;;;2.47;0.20;;;5.90;87.20;;;;;;5013553;28;20026;-69
2021/12/02 01:51:50;;;;;;;2.92;0.60;;;5.80;87.80;;;;;;5010920;28;20026;-69
2021/12/02 01:54:19;;;;;;;2.50;0.20;;;5.80;88.60;;;;;;5013344;28;20076;-69
2021/12/02 01:56:49;;;;;;;3.60;0.65;;;5.70;89.20;;;;;;5010689;28;20026;-69
2021/12/02 01:59:33;;;;;;;0.77;0.55;;;5.70;89.50;;;;;;5013628;28;20185;-69
2021/12/02 02:02:01;;;;;;;3.55;0.40;;;5.70;90.00;;;;;;5013492;28;20038;-69
2021/12/02 02:04:27;;;;;;;2.88;0.77;;;5.70;90.20;;;;;;5011108;28;20034;-70
2021/12/02 02:07:06;;;;;;;1.95;0.52;;;5.70;90.20;;;;;;5017099;28;20039;-69
2021/12/02 02:09:34;;;;;;;1.08;0.35;;;5.60;90.10;;;;;;5016384;28;20495;-70
2021/12/02 02:12:11;;;;;;;1.80;0.40;;;5.60;90.10;;;;;;5019386;28;20493;-70
2021/12/02 02:14:38;;;;;;;1.80;0.65;;;5.60;90.20;;;;;;4995168;28;20112;-70
2021/12/02 02:17:13;;;;;;;4.32;0.43;;;5.50;90.20;;;;;;5012014;28;20545;-70
2021/12/02 02:19:39;;;;;;;1.73;0.40;;;5.50;90.10;;;;;;5017207;28;20501;-70
2021/12/02 02:22:05;;;;;;;0.63;0.50;;;5.40;90.30;;;;;;5014900;28;20069;-69
2021/12/02 02:24:31;;;;;;;5.18;0.82;;;5.40;90.10;;;;;;5018387;28;20420;-70
2021/12/02 02:26:57;;;;;;;2.03;0.38;;;5.40;90.30;;;;;;5013128;28;20042;-70
2021/12/02 02:29:23;;;;;;;1.58;0.35;;;5.50;90.30;;;;;;5015915;28;20040;-69
2021/12/02 02:31:49;;;;;;;4.28;0.65;;;5.60;90.00;;;;;;5016869;28;20037;-69
2021/12/02 02:34:15;;;;;;;4.68;1.10;;;5.60;89.90;;;;;;5013294;28;20092;-70
2021/12/02 02:36:55;;;;;;;0.85;0.60;;;5.70;89.40;;;;;;5013744;28;20029;-70
2021/12/02 02:39:21;;;;;;;3.25;0.60;;;5.70;89.00;;;;;;4999387;28;20041;-69
2021/12/02 02:41:55;;;;;;;0.68;0.30;;;5.70;89.10;;;;;;5015882;28;20096;-69
2021/12/02 02:44:22;;;;;;;3.40;0.40;;;5.70;88.70;;;;;;5013142;28;20125;-69
2021/12/02 02:46:48;;;;;;;0.32;0.30;;;5.70;87.80;;;;;;5006991;28;20029;-69
2021/12/02 02:49:14;;;;;;;3.10;0.32;;;5.60;88.40;;;;;;5018928;28;20029;-69
2021/12/02 02:51:41;;;;;;;5.15;0.63;;;5.60;89.20;;;;;;5007006;28;20190;-69
2021/12/02 02:54:10;;;;;;;2.13;0.47;;;5.60;89.30;;;;;;5016682;28;20037;-69
2021/12/02 02:56:42;;;;;;;0.98;0.40;;;5.60;89.40;;;;;;5011208;28;20029;-69
2021/12/02 03:07:01;;;;;;;4.95;0.60;;;5.60;88.70;;;;;;5015821;28;20034;-70
2021/12/02 03:12:06;;;;;;;2.22;0.60;;;5.70;87.60;;;;;;5016446;28;20029;-70
2021/12/02 03:14:52;;;;;;;2.42;0.40;;;5.80;86.50;;;;;;5010629;28;20083;-69
2021/12/02 03:17:18;;;;;;;2.50;0.57;;;5.80;86.00;;;;;;5018589;28;20030;-70
2021/12/02 03:19:45;;;;;;;5.65;0.50;;;5.80;84.90;;;;;;4988059;28;20032;-69
2021/12/02 03:22:13;;;;;;;1.20;0.45;;;5.70;85.00;;;;;;5000125;28;20764;-70
2021/12/02 03:24:39;;;;;;;2.65;0.25;;;5.70;85.60;;;;;;5013518;28;20036;-70
2021/12/02 03:27:06;;;;;;;2.05;0.40;;;5.70;85.60;;;;;;5010816;28;20037;-70
2021/12/02 03:29:31;;;;;;;2.25;0.47;;;5.70;85.70;;;;;;5019586;28;20029;-70
2021/12/02 03:31:57;;;;;;;0.30;0.30;;;5.70;85.00;;;;;;5017443;28;20180;-70
2021/12/02 03:34:23;;;;;;;2.80;0.70;;;5.60;85.80;;;;;;5018369;28;20124;-69
2021/12/02 03:36:49;;;;;;;2.85;0.50;;;5.70;86.60;;;;;;5014482;28;20649;-69
2021/12/02 03:39:15;;;;;;;1.38;0.40;;;5.70;85.90;;;;;;4997804;28;20087;-70
2021/12/02 03:41:41;;;;;;;2.70;0.50;;;5.70;85.50;;;;;;4996932;28;20026;-70
2021/12/02 03:44:07;;;;;;;1.50;0.40;;;5.70;84.60;;;;;;5015035;28;20030;-70
2021/12/02 03:46:34;;;;;;;1.35;0.40;;;5.70;85.10;;;;;;5016149;28;20064;-70
2021/12/02 03:49:00;;;;;;;1.40;0.40;;;5.70;85.20;;;;;;5012612;28;20080;-70
2021/12/02 03:51:26;;;;;;;4.32;0.60;;;5.70;84.70;;;;;;5014388;28;20632;-70
2021/12/02 03:53:52;;;;;;;2.63;0.40;;;5.70;84.80;;;;;;5014380;28;20084;-70
2021/12/02 03:56:19;;;;;;;0.68;0.43;;;5.70;85.00;;;;;;5009748;28;20026;-70
2021/12/02 03:58:46;;;;;;;5.03;0.57;;;5.70;84.40;;;;;;5014480;28;20072;-70
2021/12/02 04:01:13;;;;;;;2.22;0.52;;;5.70;84.80;;;;;;5016125;28;20033;-69
2021/12/02 04:03:39;;;;;;;4.32;0.43;;;5.70;83.80;;;;;;5016690;28;20490;-69
2021/12/02 04:06:06;;;;;;;6.22;0.60;;;5.70;83.90;;;;;;5011551;28;20029;-70
2021/12/02 04:08:43;;;;;;;2.58;0.40;;;5.60;83.40;;;;;;5010142;28;20029;-70
2021/12/02 04:11:17;;;;;;;2.05;0.47;;;5.70;82.90;;;;;;5016034;28;20252;-70
2021/12/02 04:16:33;;;;;;;1.98;0.63;;;5.70;83.50;;;;;;4995392;28;20123;-70
2021/12/02 04:18:59;;;;;;;2.45;0.77;;;5.60;82.20;;;;;;5011587;28;20057;-70
2021/12/02 04:21:25;;;;;;;0.50;0.40;;;5.60;82.80;;;;;;5017043;28;20102;-70
2021/12/02 04:23:50;;;;;;;3.28;0.65;;;5.60;82.30;;;;;;5012733;28;20040;-70
2021/12/02 04:26:17;;;;;;;2.00;0.35;;;5.60;82.20;;;;;;5011549;28;20063;-69
2021/12/02 04:28:42;;;;;;;2.65;0.68;;;5.50;82.40;;;;;;5011130;28;20052;-69
2021/12/02 04:31:09;;;;;;;4.85;0.65;;;5.50;81.40;;;;;;5013921;28;20770;-69
2021/12/02 04:33:35;;;;;;;0.80;0.40;;;5.40;80.40;;;;;;5015530;28;20049;-69
2021/12/02 04:36:01;;;;;;;3.63;0.50;;;5.40;81.30;;;;;;5010799;28;20104;-69
2021/12/02 04:38:28;;;;;;;2.13;0.55;;;5.30;81.40;;;;;;5006498;28;20037;-69
2021/12/02 04:40:55;;;;;;;3.53;0.50;;;5.20;81.90;;;;;;5015894;28;20098;-69
2021/12/02 04:43:21;;;;;;;2.63;0.47;;;5.20;81.70;;;;;;5017131;28;20041;-69
2021/12/02 04:45:47;;;;;;;2.38;0.43;;;5.20;81.90;;;;;;5016019;28;20055;-69
2021/12/02 04:48:14;;;;;;;6.95;0.52;;;5.10;81.50;;;;;;5009948;28;20092;-69
2021/12/02 04:50:40;;;;;;;1.75;0.50;;;5.10;81.60;;;;;;5009102;28;20042;-69
2021/12/02 04:53:05;;;;;;;3.17;0.60;;;5.10;81.40;;;;;;5013268;28;20037;-69
2021/12/02 04:55:31;;;;;;;0.60;0.30;;;5.10;81.20;;;;;;5012377;28;20021;-69
2021/12/02 04:57:57;;;;;;;5.15;0.63;;;5.20;81.50;;;;;;5014125;28;20441;-69
2021/12/02 05:00:23;;;;;;;6.40;0.55;;;5.20;81.80;;;;;;5012386;28;20053;-69
2021/12/02 05:02:49;;;;;;;1.50;0.38;;;5.30;81.80;;;;;;5013222;28;20077;-69
2021/12/02 05:05:15;;;;;;;0.70;0.47;;;5.30;81.40;;;;;;5013052;28;20108;-69
2021/12/02 05:07:40;;;;;;;1.25;0.43;;;5.30;80.90;;;;;;5006123;28;20088;-68
2021/12/02 05:10:07;;;;;;;1.80;0.47;;;5.30;80.20;;;;;;5018159;28;20727;-69
2021/12/02 05:12:33;;;;;;;1.88;0.35;;;5.30;79.60;;;;;;5013428;28;20068;-69
2021/12/02 05:15:01;;;;;;;0.50;0.30;;;5.30;79.90;;;;;;5013276;28;20476;-69
2021/12/02 05:17:27;;;;;;;1.00;0.40;;;5.30;79.20;;;;;;5009799;28;20041;-69
2021/12/02 05:19:53;;;;;;;3.85;0.43;;;5.30;79.30;;;;;;5008894;28;20041;-69
2021/12/02 05:22:18;;;;;;;1.13;0.30;;;5.30;78.70;;;;;;5016161;28;20074;-69
2021/12/02 05:24:44;;;;;;;2.92;0.40;;;5.30;78.00;;;;;;5015409;28;20068;-69
2021/12/02 05:27:12;;;;;;;1.75;0.47;;;5.40;78.50;;;;;;5015816;28;20088;-69
2021/12/02 05:29:38;;;;;;;4.15;0.93;;;5.40;78.50;;;;;;5001289;28;20091;-69
2021/12/02 05:32:04;;;;;;;2.25;0.35;;;5.40;78.70;;;;;;5010202;28;20113;-69
2021/12/02 05:34:34;;;;;;;4.57;1.33;;;5.40;78.70;;;;;;5013326;28;20026;-69
2021/12/02 05:37:00;;;;;;;2.92;0.50;;;5.40;78.60;;;;;;4994572;28;20026;-69
2021/12/02 05:39:26;;;;;;;1.48;0.43;;;5.30;78.70;;;;;;5021604;28;20540;-69
2021/12/02 05:41:53;;;;;;;2.33;0.50;;;5.20;79.40;;;;;;5015671;28;20041;-70
2021/12/02 05:44:23;;;;;;;1.42;0.50;;;5.20;79.30;;;;;;5017372;28;20461;-69
2021/12/02 05:46:49;;;;;;;1.50;0.50;;;5.20;79.30;;;;;;4995988;28;20044;-69
2021/12/02 05:49:15;;;;;;;1.00;0.43;;;5.20;78.70;;;;;;5010849;28;20022;-69
2021/12/02 05:51:42;;;;;;;3.75;0.70;;;5.10;79.00;;;;;;5003278;28;20809;-69
2021/12/02 05:54:08;;;;;;;2.20;0.30;;;5.10;78.80;;;;;;5018738;28;20037;-68
2021/12/02 05:56:34;;;;;;;1.65;0.40;;;5.10;78.60;;;;;;5019333;28;20022;-69
2021/12/02 05:59:00;;;;;;;1.55;0.63;;;5.20;78.70;;;;;;5001588;28;20101;-69
2021/12/02 06:01:26;;;;;;;2.10;0.40;;;5.20;78.80;;;;;;5000517;28;20104;-69
2021/12/02 06:03:52;;;;;;;1.58;0.70;;;5.30;80.00;;;;;;5019246;28;20037;-69
2021/12/02 06:06:18;;;;;;;1.35;0.40;;;5.30;81.00;;;;;;5021815;28;20051;-69
2021/12/02 06:08:44;;;;;;;3.63;0.50;;;5.40;80.80;;;;;;5020505;28;20056;-69
2021/12/02 06:11:10;;;;;;;7.25;0.77;;;5.40;80.90;;;;;;5012587;28;20489;-70
2021/12/02 06:13:37;;;;;;;4.18;0.50;;;5.50;81.00;;;;;;5021815;28;20490;-70
2021/12/02 06:16:03;;;;;;;3.28;0.73;;;5.50;81.10;;;;;;5020393;28;20057;-70
2021/12/02 06:18:28;;;;;;;8.45;0.65;;;5.40;80.40;;;;;;5018508;28;20029;-69
2021/12/02 06:20:54;;;;;;;2.92;0.45;;;5.40;80.90;;;;;;5023689;28;20033;-70
2021/12/02 06:23:23;;;;;;;4.68;0.50;;;5.40;80.50;;;;;;5022381;28;20041;-70
2021/12/02 06:25:50;;;;;;;1.45;0.60;;;5.40;81.10;;;;;;5021676;28;20608;-70
2021/12/02 06:28:17;;;;;;;0.65;0.32;;;5.30;81.40;;;;;;5018494;28;20029;-69
2021/12/02 06:30:44;;;;;;;0.82;0.40;;;5.20;81.70;;;;;;5012472;28;20108;-69
2021/12/02 06:33:11;;;;;;;3.72;0.50;;;5.20;82.20;;;;;;5020202;28;20057;-69
2021/12/02 06:35:37;;;;;;;3.55;0.50;;;5.10;82.60;;;;;;5021170;28;20017;-69
2021/12/02 06:38:03;;;;;;;1.45;0.60;;;5.00;82.90;;;;;;5007017;28;20953;-69
2021/12/02 06:40:29;;;;;;;2.50;0.65;;;4.90;82.60;;;;;;5015651;28;20030;-69
2021/12/02 06:42:55;;;;;;;4.63;0.50;;;4.90;82.70;;;;;;5023071;28;20111;-69
2021/12/02 06:45:20;;;;;;;2.15;0.60;;;4.80;83.00;;;;;;5018950;28;20052;-69
2021/12/02 06:47:47;;;;;;;0.80;0.40;;;4.80;82.90;;;;;;5019803;28;20102;-69
2021/12/02 06:50:18;;;;;;;0.63;0.45;;;4.90;82.80;;;;;;5020335;28;20128;-69
2021/12/02 06:52:46;;;;;;;5.63;0.60;;;5.00;82.50;;;;;;5020854;28;20180;-69
2021/12/02 06:55:12;;;;;;;3.30;0.82;;;5.00;82.10;;;;;;5020797;28;20437;-69
2021/12/02 06:57:39;;;;;;;3.13;0.52;;;5.00;81.60;;;;;;5007663;28;20041;-68
2021/12/02 07:00:08;;;;;;;1.27;0.50;;;5.00;81.40;;;;;;5018392;28;20035;-69
2021/12/02 07:02:35;;;;;;;2.10;0.43;;;5.00;81.40;;;;;;5026797;28;20044;-69
2021/12/02 07:05:02;;;;;;;1.92;0.60;;;4.90;81.10;;;;;;5021784;28;20398;-69
2021/12/02 07:07:32;;;;;;;5.25;0.50;;;5.00;80.80;;;;;;5022416;28;20056;-69
2021/12/02 07:09:59;;;;;;;2.70;0.70;;;4.90;80.00;;;;;;5012381;28;20038;-69
2021/12/02 07:12:33;;;;;;;7.22;1.00;;;4.80;80.20;;;;;;4994055;28;20152;-69
2021/12/02 07:15:08;;;;;;;1.83;0.60;;;4.90;80.70;;;;;;5022247;28;20022;-69
2021/12/02 07:17:34;;;;;;;4.03;0.60;;;4.90;81.20;;;;;;5019677;28;20037;-70
2021/12/02 07:20:03;;;;;;;2.55;0.60;;;4.90;79.60;;;;;;5022685;28;20040;-70
2021/12/02 07:22:29;;;;;;;4.78;0.40;;;4.80;79.60;;;;;;5017343;28;20542;-70
2021/12/02 07:24:55;;;;;;;3.70;0.63;;;4.80;79.60;;;;;;5017681;28;20048;-70
2021/12/02 07:27:21;;;;;;;3.42;0.85;;;4.70;79.40;;;;;;5018622;28;20040;-69
2021/12/02 07:29:46;;;;;;;3.92;0.75;;;4.70;79.20;;;;;;5023918;28;20017;-69
2021/12/02 07:32:12;;;;;;;1.30;0.30;;;4.70;79.90;;;;;;5024902;28;20037;-69
2021/12/02 07:34:45;;;;;;;3.25;0.52;;;4.60;79.30;;;;;;5006856;28;20061;-70
2021/12/02 07:37:15;;;;;;;0.45;0.20;;;4.60;80.00;;;;;;5018085;28;20112;-70
2021/12/02 07:39:41;;;;;;;3.40;0.60;;;4.60;80.20;;;;;;5015310;28;20081;-70
2021/12/02 07:42:07;;;;;;;2.47;0.55;;;4.50;80.30;;;;;;5018336;28;20040;-70
2021/12/02 07:44:36;;;;;;;4.90;0.60;;;4.50;79.60;;;;;;5019382;28;20025;-68
2021/12/02 07:47:05;;;;;;;2.47;0.98;;;4.40;80.60;;;;;;5020085;28;20469;-69
2021/12/02 07:49:31;;;;;;;2.65;0.40;;;4.40;80.80;;;;;;5015102;28;20041;-70
2021/12/02 07:51:59;;;;;;;3.42;0.93;;;4.40;80.00;;;;;;4996941;28;20046;-70
2021/12/02 07:54:26;;;;;;;4.80;1.20;;;4.50;80.00;;;;;;5017593;28;20632;-70
2021/12/02 07:56:53;;;;;;;3.45;0.70;;;4.50;79.90;;;;;;5018373;28;20032;-70
2021/12/02 07:59:19;;;;;;;2.47;0.73;;;4.50;80.00;;;;;;5019796;28;20033;-70
2021/12/02 08:01:47;;;;;;;1.30;0.50;;;4.50;79.40;;;;;;5023274;28;20973;-71
2021/12/02 08:04:13;;;;;;;4.10;0.35;;;4.50;79.00;;;;;;5015857;28;20108;-70
2021/12/02 08:06:39;;;;;;;3.47;0.77;;;4.60;78.70;;;;;;5014758;28;20033;-71
2021/12/02 08:09:06;;;;;;;3.15;0.50;;;4.60;78.40;;;;;;5002337;28;20056;-70
2021/12/02 08:11:32;;;;;;;5.05;0.60;;;4.60;78.10;;;;;;5018529;28;20033;-71
2021/12/02 08:13:58;;;;;;;1.67;0.85;;;4.70;77.60;;;;;;5021253;28;20029;-70
2021/12/02 08:16:25;;;;;;;2.72;0.70;;;4.90;77.20;;;;;;5020459;28;20036;-70
2021/12/02 08:18:50;;;;;;;5.00;0.98;;;5.00;76.40;;;;;;5013552;28;20080;-70
2021/12/02 08:21:16;;;;;;;1.88;1.10;;;5.20;76.00;;;;;;5017455;28;20421;-71
2021/12/02 08:23:42;;;;;;;5.55;1.90;;;5.30;74.70;;;;;;5021219;28;20485;-71
2021/12/02 08:26:08;;;;;;;2.13;0.60;;;5.50;74.30;;;;;;5024899;28;20037;-73
2021/12/02 08:28:34;;;;;;;1.60;0.65;;;5.40;72.20;;;;;;5025872;28;20032;-72
2021/12/02 08:30:59;;;;;;;1.67;0.65;;;5.40;73.40;;;;;;5013717;28;20034;-72
2021/12/02 08:33:25;;;;;;;2.60;0.40;;;5.30;72.40;;;;;;5005035;28;20029;-71
2021/12/02 08:35:51;;;;;;;4.90;0.60;;;5.40;71.90;;;;;;5015602;28;20041;-71
2021/12/02 08:38:19;;;;;;;1.63;0.75;;;5.20;71.80;;;;;;5018321;28;20160;-71
2021/12/02 08:40:48;;;;;;;3.85;0.70;;;5.30;71.50;;;;;;5016149;28;20021;-71
2021/12/02 08:43:14;;;;;;;1.90;0.70;;;5.40;71.70;;;;;;5013554;28;20100;-71
2021/12/02 08:45:43;;;;;;;1.85;0.35;;;5.50;70.40;;;;;;4994923;28;20110;-71
2021/12/02 08:48:10;;;;;;;3.80;0.50;;;5.50;71.30;;;;;;5018638;28;20039;-71
2021/12/02 08:50:38;;;;;;;0.95;0.68;;;5.50;70.90;;;;;;5014309;28;20021;-69
2021/12/02 08:53:06;;;;;;;1.40;0.73;;;5.50;71.60;;;;;;5015194;28;20030;-71
2021/12/02 08:55:32;;;;;;;3.55;0.55;;;5.60;70.40;;;;;;5017071;28;20141;-69
2021/12/02 08:57:59;;;;;;;0.60;0.40;;;5.70;70.40;;;;;;5019449;28;20083;-72
2021/12/02 09:00:32;;;;;;;0.68;0.20;;;6.10;68.60;;;;;;5018664;28;20064;-71
2021/12/02 09:02:58;;;;;;;3.85;0.70;;;6.50;66.30;;;;;;5019191;28;20433;-68
2021/12/02 09:05:24;;;;;;;1.83;0.47;;;6.90;65.20;;;;;;5002610;28;20069;-71
2021/12/02 09:07:51;;;;;;;1.80;0.30;;;7.10;63.90;;;;;;5018379;28;20116;-73
2021/12/02 09:10:21;;;;;;;1.88;0.40;;;7.70;62.40;;;;;;5022298;28;20102;-71
2021/12/02 09:12:47;;;;;;;1.15;0.43;;;8.70;57.80;;;;;;5025664;28;20029;-71
2021/12/02 09:15:13;;;;;;;1.02;0.45;;;9.60;55.50;;;;;;5023094;28;20627;-73
2021/12/02 09:17:38;;;;;;;1.13;0.40;;;10.60;53.90;;;;;;5019436;28;20116;-72
2021/12/02 09:20:06;;;;;;;3.63;1.58;;;11.30;50.30;;;;;;5022593;28;20033;-72
2021/12/02 09:22:32;;;;;;;1.27;0.35;;;12.00;48.40;;;;;;5023885;28;20545;-74
2021/12/02 09:24:58;;;;;;;0.73;0.40;;;12.30;47.20;;;;;;5027337;28;20036;-75
2021/12/02 09:27:24;;;;;;;1.50;0.50;;;12.50;46.30;;;;;;5027793;28;20070;-73
2021/12/02 09:29:50;;;;;;;2.22;0.70;;;12.40;46.10;;;;;;5028579;28;20064;-73
2021/12/02 09:32:16;;;;;;;1.98;0.75;;;12.20;46.80;;;;;;5028252;28;20076;-74
2021/12/02 09:34:42;;;;;;;0.25;0.25;;;11.40;47.20;;;;;;5007453;28;20036;-73
2021/12/02 09:37:08;;;;;;;3.17;0.55;;;10.20;49.40;;;;;;5022394;28;20037;-72
2021/12/02 09:39:34;;;;;;;1.38;0.50;;;9.40;52.70;;;;;;5024757;28;20013;-72
2021/12/02 09:42:01;;;;;;;1.38;0.63;;;8.80;54.20;;;;;;5025191;28;20041;-72
2021/12/02 09:44:28;;;;;;;3.35;0.65;;;8.20;56.10;;;;;;5011051;28;20021;-70
2021/12/02 09:46:54;;;;;;;4.82;1.45;;;7.80;56.70;;;;;;5021345;28;20044;-71
2021/12/02 09:49:23;;;;;;;3.88;0.88;;;7.40;57.80;;;;;;5026649;28;20731;-71
2021/12/02 09:54:24;;;;;;;3.08;1.10;;;6.90;60.80;;;;;;5026235;28;20022;-71
2021/12/02 09:56:52;;;;;;;2.58;0.40;;;6.70;61.40;;;;;;5017298;28;20049;-71
2021/12/02 09:59:49;;;;;;;1.60;0.75;;;6.70;60.80;;;;;;5024996;28;20041;-71
2021/12/02 10:02:18;;;;;;;1.40;0.40;;;6.60;62.20;;;;;;5023285;28;20029;-72
2021/12/02 10:04:51;;;;;;;1.40;0.52;;;6.40;61.30;;;;;;5027028;28;20718;-72
2021/12/02 10:07:35;;;;;;;3.10;0.93;;;6.40;63.20;;;;;;5030571;28;20033;-72
2021/12/02 10:12:37;;;;;;;2.10;0.88;;;6.50;62.00;;;;;;5003909;28;20029;-69
2021/12/02 10:15:12;;;;;;;1.90;0.50;;;6.50;60.50;;;;;;5027447;28;20133;-71
2021/12/02 10:17:43;;;;;;;4.10;0.63;;;6.40;63.20;;;;;;5024118;28;20112;-71
2021/12/02 10:23:19;;;;;;;3.25;0.65;;;6.20;64.40;;;;;;5019604;28;20038;-71
2021/12/02 10:25:50;;;;;;;1.80;0.50;;;6.20;64.00;;;;;;5016196;28;20030;-70
2021/12/02 10:28:18;;;;;;;2.17;0.60;;;6.20;63.90;;;;;;5022407;28;20030;-70
2021/12/02 10:30:49;;;;;;;2.50;0.50;;;6.10;63.80;;;;;;5016909;28;20108;-69
2021/12/02 10:33:27;;;;;;;1.20;0.50;;;6.10;65.80;;;;;;5024664;28;20025;-69
2021/12/02 10:35:53;;;;;;;3.90;0.60;;;6.10;65.90;;;;;;5014668;28;20038;-67
2021/12/02 10:38:35;;;;;;;4.55;0.95;;;6.20;65.40;;;;;;5002984;28;20136;-69
2021/12/02 10:41:04;;;;;;;1.35;0.50;;;6.20;64.80;;;;;;5018541;28;20078;-68
2021/12/02 10:43:30;;;;;;;3.55;1.02;;;6.20;65.30;;;;;;5006128;28;20128;-68
2021/12/02 10:46:13;;;;;;;3.35;0.43;;;6.20;65.10;;;;;;5022184;28;20036;-68
2021/12/02 10:48:48;;;;;;;1.92;0.63;;;6.30;66.10;;;;;;5004492;28;20588;-70
2021/12/02 10:51:50;;;;;;;2.30;0.55;;;6.30;64.80;;;;;;5022204;28;20139;-68
2021/12/02 10:54:22;;;;;;;7.93;1.30;;;6.30;65.00;;;;;;5023843;28;20064;-68
2021/12/02 10:56:55;;;;;;;5.75;0.57;;;6.30;65.70;;;;;;5020699;28;20030;-68
2021/12/02 10:59:27;;;;;;;1.98;0.57;;;6.30;64.80;;;;;;5004918;28;20049;-68
2021/12/02 11:01:55;;;;;;;4.38;1.30;;;6.30;64.40;;;;;;5019736;28;20030;-68
2021/12/02 11:04:22;;;;;;;4.68;1.85;;;6.30;65.30;;;;;;5006169;28;20126;-68
2021/12/02 11:06:50;;;;;;;2.85;0.85;;;6.30;65.60;;;;;;5018911;28;20044;-68
2021/12/02 11:09:31;;;;;;;3.53;0.68;;;6.40;65.60;;;;;;5018460;28;20044;-68
2021/12/02 11:12:07;;;;;;;1.05;0.52;;;6.40;65.70;;;;;;5013155;28;20037;-68
2021/12/02 11:14:33;;;;;;;3.97;0.57;;;6.30;64.70;;;;;;5001424;28;20064;-68
2021/12/02 11:17:07;;;;;;;1.00;0.52;;;6.30;63.60;;;;;;5015514;28;20109;-67
2021/12/02 11:19:34;;;;;;;3.13;0.77;;;6.30;64.00;;;;;;5003255;28;20115;-68
2021/12/02 11:22:07;;;;;;;1.65;0.63;;;6.30;62.90;;;;;;5020771;28;20041;-68
2021/12/02 11:24:34;;;;;;;1.80;0.60;;;6.20;63.00;;;;;;5017217;28;20095;-68
2021/12/02 11:27:19;;;;;;;3.60;0.50;;;6.20;63.10;;;;;;5019811;28;20166;-68
2021/12/02 11:29:57;;;;;;;2.60;0.82;;;6.30;63.60;;;;;;5017179;28;20156;-68
2021/12/02 11:32:53;;;;;;;2.00;1.20;;;6.30;63.20;;;;;;5019721;28;20038;-69
2021/12/02 11:35:37;;;;;;;1.88;0.50;;;6.30;62.60;;;;;;4993092;28;20061;-65
2021/12/02 11:38:03;;;;;;;1.85;0.85;;;6.40;62.70;;;;;;5001844;28;20041;-67
2021/12/02 11:40:36;;;;;;;1.80;0.93;;;6.30;61.90;;;;;;5018176;28;20067;-67
2021/12/02 11:43:03;;;;;;;0.75;0.40;;;6.30;60.40;;;;;;5005184;28;20044;-66
2021/12/02 11:45:31;;;;;;;1.25;0.30;;;6.30;61.30;;;;;;5019286;28;20025;-67
2021/12/02 11:47:57;;;;;;;1.80;0.43;;;6.30;62.40;;;;;;5017537;28;20115;-67
2021/12/02 11:50:25;;;;;;;3.55;0.55;;;6.30;63.00;;;;;;5022000;28;20061;-66
2021/12/02 11:52:51;;;;;;;2.28;0.50;;;6.30;62.70;;;;;;5016614;28;20030;-67
2021/12/02 11:55:23;;;;;;;3.88;0.63;;;6.30;61.40;;;;;;5014272;28;20119;-66
2021/12/02 11:57:49;;;;;;;2.42;0.80;;;6.40;61.40;;;;;;5019365;28;20244;-66
2021/12/02 12:00:19;;;;;;;3.05;0.52;;;6.40;63.00;;;;;;5017757;28;20537;-66
2021/12/02 12:02:53;;;;;;;1.05;0.38;;;6.40;62.80;;;;;;5019232;28;20040;-66
2021/12/02 12:05:30;;;;;;;0.77;0.68;;;6.40;62.10;;;;;;5013389;28;20037;-67
2021/12/02 12:07:57;;;;;;;0.57;0.30;;;6.50;61.90;;;;;;5002494;28;20037;-67
2021/12/02 12:10:32;;;;;;;2.08;0.55;;;6.50;61.30;;;;;;5000239;28;20034;-67
2021/12/02 12:13:21;;;;;;;1.65;0.40;;;6.50;60.90;;;;;;5020917;28;20034;-69
2021/12/02 12:15:53;;;;;;;1.05;0.40;;;6.50;60.40;;;;;;5015390;28;20036;-67
2021/12/02 12:18:36;;;;;;;3.85;0.50;;;6.50;61.20;;;;;;5023705;28;20045;-67
2021/12/02 12:21:04;;;;;;;5.53;0.40;;;6.50;59.50;;;;;;5019158;28;20463;-68
2021/12/02 12:23:58;;;;;;;2.05;0.40;;;6.50;60.00;;;;;;5014596;28;20031;-66
2021/12/02 12:26:38;;;;;;;2.20;0.45;;;6.50;59.90;;;;;;5020571;28;20048;-68
2021/12/02 12:29:04;;;;;;;3.20;0.47;;;6.40;60.70;;;;;;5002204;28;20779;-67
2021/12/02 12:31:38;;;;;;;1.63;0.40;;;6.50;59.90;;;;;;5016131;28;20041;-68
2021/12/02 12:34:26;;;;;;;1.40;0.50;;;6.50;60.10;;;;;;5012145;28;20029;-67
2021/12/02 12:36:52;;;;;;;1.67;0.60;;;6.50;60.00;;;;;;5010541;28;20025;-67
2021/12/02 12:39:30;;;;;;;1.00;0.40;;;6.40;60.00;;;;;;5015707;28;20064;-68
2021/12/02 12:42:17;;;;;;;4.60;1.17;;;6.40;60.10;;;;;;5002776;28;20060;-68
2021/12/02 12:44:49;;;;;;;;;;;6.50;60.20;;;;;;5010588;28;20033;-66
2021/12/02 12:47:16;;;;;;;1.52;0.50;;;6.50;60.10;;;;;;5020533;28;19967;-66
2021/12/02 12:49:43;;;;;;;1.08;0.52;;;6.40;58.10;;;;;;5020301;28;20412;-67
2021/12/02 12:52:17;;;;;;;1.77;0.50;;;6.40;58.80;;;;;;5022858;28;20108;-67
2021/12/02 12:55:03;;;;;;;0.85;0.45;;;6.40;59.40;;;;;;5017597;28;20072;-67
2021/12/02 12:57:28;;;;;;;1.33;0.40;;;6.40;58.50;;;;;;5013519;28;20029;-67
2021/12/02 12:59:55;;;;;;;1.92;0.30;;;6.40;58.10;;;;;;4999318;28;20715;-67
2021/12/02 13:02:21;;;;;;;2.50;0.30;;;6.40;58.80;;;;;;5015577;28;20521;-68
2021/12/02 13:04:54;;;;;;;0.20;0.15;;;6.50;58.20;;;;;;5003019;28;20090;-68
2021/12/02 13:07:22;;;;;;;2.63;0.57;;;6.50;57.60;;;;;;5023308;28;20044;-67
2021/12/02 13:09:54;;;;;;;2.20;0.38;;;6.50;57.60;;;;;;5014847;28;20041;-67
2021/12/02 13:12:47;;;;;;;0.75;0.40;;;6.40;58.60;;;;;;5016411;28;20041;-67
2021/12/02 13:15:17;;;;;;;1.13;0.68;;;6.40;58.50;;;;;;5013188;28;20453;-67
2021/12/02 13:17:47;;;;;;;0.90;0.60;;;6.40;58.80;;;;;;5012298;28;20037;-67
2021/12/02 13:20:33;;;;;;;0.77;0.40;;;6.30;58.90;;;;;;5018073;28;20037;-68
2021/12/02 13:23:17;;;;;;;0.55;0.32;;;6.30;58.50;;;;;;5015634;28;20139;-68
2021/12/02 13:25:45;;;;;;;0.85;0.40;;;6.40;58.20;;;;;;5002369;28;20030;-67
2021/12/02 13:28:16;;;;;;;2.20;0.43;;;6.40;57.80;;;;;;5003978;28;20037;-67
2021/12/02 13:30:54;;;;;;;3.95;0.50;;;6.30;58.10;;;;;;5017617;28;20478;-67